sensor_id;sensor_type;location;lat;lon;timestamp;P1;durP1;ratioP1;P2;durP2;ratioP2
23496;SDS011;11925;48.122;11.560;2024-02-04T00:02:10;3.30;;;2.30;;
23496;SDS011;11925;48.122;11.560;2024-02-04T00:04:41;3.50;;;2.20;;
23496;SDS011;11925;48.122;11.560;2024-02-04T00:07:11;3.70;;;2.75;;
23496;SDS011;11925;48.122;11.560;2024-02-04T00:09:40;3.22;;;2.13;;
23496;SDS011;11925;48.122;11.560;2024-02-04T00:12:10;5.30;;;2.35;;
23496;SDS011;11925;48.122;11.560;2024-02-04T00:14:39;4.57;;;2.88;;
23496;SDS011;11925;48.122;11.560;2024-02-04T00:17:07;4.07;;;3.08;;
23496;SDS011;11925;48.122;11.560;2024-02-04T00:19:36;3.38;;;2.63;;
23496;SDS011;11925;48.122;11.560;2024-02-04T00:22:05;3.65;;;2.53;;
23496;SDS011;11925;48.122;11.560;2024-02-04T00:24:35;3.25;;;2.30;;
23496;SDS011;11925;48.122;11.560;2024-02-04T00:27:04;4.20;;;2.58;;
23496;SDS011;11925;48.122;11.560;2024-02-04T00:29:33;4.38;;;2.70;;
23496;SDS011;11925;48.122;11.560;2024-02-04T00:32:01;3.97;;;2.42;;
23496;SDS011;11925;48.122;11.560;2024-02-04T00:34:30;4.05;;;2.60;;
23496;SDS011;11925;48.122;11.560;2024-02-04T00:36:59;5.53;;;2.38;;
23496;SDS011;11925;48.122;11.560;2024-02-04T00:39:28;3.80;;;2.20;;
23496;SDS011;11925;48.122;11.560;2024-02-04T00:41:58;3.28;;;2.53;;
23496;SDS011;11925;48.122;11.560;2024-02-04T00:44:27;3.22;;;2.40;;
23496;SDS011;11925;48.122;11.560;2024-02-04T00:46:55;3.05;;;2.40;;
23496;SDS011;11925;48.122;11.560;2024-02-04T00:49:24;2.70;;;2.00;;
23496;SDS011;11925;48.122;11.560;2024-02-04T00:51:53;3.80;;;2.25;;
23496;SDS011;11925;48.122;11.560;2024-02-04T00:54:22;3.60;;;2.50;;
23496;SDS011;11925;48.122;11.560;2024-02-04T00:56:51;3.50;;;2.70;;
23496;SDS011;11925;48.122;11.560;2024-02-04T00:59:22;4.25;;;2.95;;
23496;SDS011;11925;48.122;11.560;2024-02-04T01:01:50;3.40;;;2.80;;
23496;SDS011;11925;48.122;11.560;2024-02-04T01:04:19;4.07;;;2.92;;
23496;SDS011;11925;48.122;11.560;2024-02-04T01:06:49;4.25;;;3.28;;
23496;SDS011;11925;48.122;11.560;2024-02-04T01:09:27;3.88;;;3.10;;
23496;SDS011;11925;48.122;11.560;2024-02-04T01:11:56;4.78;;;3.15;;
23496;SDS011;11925;48.122;11.560;2024-02-04T01:14:26;4.32;;;3.20;;
23496;SDS011;11925;48.122;11.560;2024-02-04T01:16:55;4.50;;;2.85;;
23496;SDS011;11925;48.122;11.560;2024-02-04T01:19:24;4.03;;;3.10;;
23496;SDS011;11925;48.122;11.560;2024-02-04T01:21:52;4.70;;;3.67;;
23496;SDS011;11925;48.122;11.560;2024-02-04T01:24:21;4.32;;;3.42;;
23496;SDS011;11925;48.122;11.560;2024-02-04T01:26:50;4.68;;;3.22;;
23496;SDS011;11925;48.122;11.560;2024-02-04T01:29:19;4.53;;;3.35;;
23496;SDS011;11925;48.122;11.560;2024-02-04T01:31:50;4.85;;;3.40;;
23496;SDS011;11925;48.122;11.560;2024-02-04T01:34:18;4.20;;;2.92;;
23496;SDS011;11925;48.122;11.560;2024-02-04T01:36:47;4.82;;;3.25;;
23496;SDS011;11925;48.122;11.560;2024-02-04T01:39:16;4.47;;;3.00;;
23496;SDS011;11925;48.122;11.560;2024-02-04T01:41:44;4.85;;;3.20;;
23496;SDS011;11925;48.122;11.560;2024-02-04T01:44:13;3.53;;;2.78;;
23496;SDS011;11925;48.122;11.560;2024-02-04T01:46:43;4.10;;;3.22;;
23496;SDS011;11925;48.122;11.560;2024-02-04T01:49:13;3.72;;;2.97;;
23496;SDS011;11925;48.122;11.560;2024-02-04T01:51:42;4.32;;;3.35;;
23496;SDS011;11925;48.122;11.560;2024-02-04T01:54:11;3.78;;;3.00;;
23496;SDS011;11925;48.122;11.560;2024-02-04T01:56:39;4.85;;;3.35;;
23496;SDS011;11925;48.122;11.560;2024-02-04T01:59:08;4.63;;;2.95;;
23496;SDS011;11925;48.122;11.560;2024-02-04T02:01:38;4.63;;;3.15;;
23496;SDS011;11925;48.122;11.560;2024-02-04T02:04:07;3.47;;;2.95;;
23496;SDS011;11925;48.122;11.560;2024-02-04T02:06:38;4.45;;;3.28;;
23496;SDS011;11925;48.122;11.560;2024-02-04T02:09:10;5.53;;;3.30;;
23496;SDS011;11925;48.122;11.560;2024-02-04T02:11:41;4.50;;;3.25;;
23496;SDS011;11925;48.122;11.560;2024-02-04T02:14:11;4.35;;;3.08;;
23496;SDS011;11925;48.122;11.560;2024-02-04T02:16:41;3.92;;;2.83;;
23496;SDS011;11925;48.122;11.560;2024-02-04T02:19:15;4.35;;;3.22;;
23496;SDS011;11925;48.122;11.560;2024-02-04T02:21:50;4.07;;;3.25;;
23496;SDS011;11925;48.122;11.560;2024-02-04T02:27:08;4.55;;;3.00;;
23496;SDS011;11925;48.122;11.560;2024-02-04T02:29:37;6.07;;;3.40;;
23496;SDS011;11925;48.122;11.560;2024-02-04T02:32:06;4.40;;;3.22;;
23496;SDS011;11925;48.122;11.560;2024-02-04T02:34:35;4.78;;;3.33;;
23496;SDS011;11925;48.122;11.560;2024-02-04T02:37:08;4.20;;;3.20;;
23496;SDS011;11925;48.122;11.560;2024-02-04T02:39:40;5.10;;;3.03;;
23496;SDS011;11925;48.122;11.560;2024-02-04T02:42:12;5.22;;;3.00;;
23496;SDS011;11925;48.122;11.560;2024-02-04T02:44:42;4.38;;;3.25;;
23496;SDS011;11925;48.122;11.560;2024-02-04T02:47:12;5.43;;;3.33;;
23496;SDS011;11925;48.122;11.560;2024-02-04T02:49:43;3.47;;;2.85;;
23496;SDS011;11925;48.122;11.560;2024-02-04T02:52:12;5.32;;;3.30;;
23496;SDS011;11925;48.122;11.560;2024-02-04T02:54:41;5.32;;;3.65;;
23496;SDS011;11925;48.122;11.560;2024-02-04T02:57:09;5.15;;;3.30;;
23496;SDS011;11925;48.122;11.560;2024-02-04T02:59:40;4.68;;;3.00;;
23496;SDS011;11925;48.122;11.560;2024-02-04T03:02:09;5.07;;;3.27;;
23496;SDS011;11925;48.122;11.560;2024-02-04T03:04:40;6.53;;;3.65;;
23496;SDS011;11925;48.122;11.560;2024-02-04T03:07:09;4.72;;;3.15;;
23496;SDS011;11925;48.122;11.560;2024-02-04T03:09:38;4.78;;;2.60;;
23496;SDS011;11925;48.122;11.560;2024-02-04T03:12:06;3.92;;;2.78;;
23496;SDS011;11925;48.122;11.560;2024-02-04T03:14:35;3.70;;;2.70;;
23496;SDS011;11925;48.122;11.560;2024-02-04T03:17:05;3.90;;;2.75;;
23496;SDS011;11925;48.122;11.560;2024-02-04T03:19:34;4.20;;;2.70;;
23496;SDS011;11925;48.122;11.560;2024-02-04T03:22:03;4.15;;;2.88;;
23496;SDS011;11925;48.122;11.560;2024-02-04T03:24:32;4.15;;;2.70;;
23496;SDS011;11925;48.122;11.560;2024-02-04T03:27:00;3.53;;;2.53;;
23496;SDS011;11925;48.122;11.560;2024-02-04T03:29:29;3.72;;;2.40;;
23496;SDS011;11925;48.122;11.560;2024-02-04T03:31:58;4.40;;;2.67;;
23496;SDS011;11925;48.122;11.560;2024-02-04T03:34:28;4.20;;;2.83;;
23496;SDS011;11925;48.122;11.560;2024-02-04T03:36:57;3.38;;;2.50;;
23496;SDS011;11925;48.122;11.560;2024-02-04T03:39:26;3.53;;;2.78;;
23496;SDS011;11925;48.122;11.560;2024-02-04T03:41:54;3.05;;;2.38;;
23496;SDS011;11925;48.122;11.560;2024-02-04T03:44:23;4.93;;;2.80;;
23496;SDS011;11925;48.122;11.560;2024-02-04T03:46:52;3.97;;;2.83;;
23496;SDS011;11925;48.122;11.560;2024-02-04T03:49:21;3.63;;;2.35;;
23496;SDS011;11925;48.122;11.560;2024-02-04T03:51:51;4.05;;;2.40;;
23496;SDS011;11925;48.122;11.560;2024-02-04T03:54:20;3.17;;;2.17;;
23496;SDS011;11925;48.122;11.560;2024-02-04T03:56:49;3.10;;;2.10;;
23496;SDS011;11925;48.122;11.560;2024-02-04T03:59:18;2.80;;;2.05;;
23496;SDS011;11925;48.122;11.560;2024-02-04T04:01:47;2.95;;;2.10;;
23496;SDS011;11925;48.122;11.560;2024-02-04T04:04:16;3.20;;;1.77;;
23496;SDS011;11925;48.122;11.560;2024-02-04T04:06:45;3.67;;;2.28;;
23496;SDS011;11925;48.122;11.560;2024-02-04T04:09:16;3.17;;;2.13;;
23496;SDS011;11925;48.122;11.560;2024-02-04T04:11:45;4.32;;;1.90;;
23496;SDS011;11925;48.122;11.560;2024-02-04T04:14:14;4.28;;;1.80;;
23496;SDS011;11925;48.122;11.560;2024-02-04T04:16:42;2.78;;;1.65;;
23496;SDS011;11925;48.122;11.560;2024-02-04T04:19:11;2.72;;;1.90;;
23496;SDS011;11925;48.122;11.560;2024-02-04T04:21:40;3.60;;;1.80;;
23496;SDS011;11925;48.122;11.560;2024-02-04T04:24:08;2.53;;;2.05;;
23496;SDS011;11925;48.122;11.560;2024-02-04T04:26:39;4.00;;;1.65;;
23496;SDS011;11925;48.122;11.560;2024-02-04T04:29:07;2.30;;;1.55;;
23496;SDS011;11925;48.122;11.560;2024-02-04T04:31:36;2.88;;;1.60;;
23496;SDS011;11925;48.122;11.560;2024-02-04T04:34:05;4.00;;;1.80;;
23496;SDS011;11925;48.122;11.560;2024-02-04T04:36:34;3.00;;;1.58;;
23496;SDS011;11925;48.122;11.560;2024-02-04T04:39:03;2.38;;;1.67;;
23496;SDS011;11925;48.122;11.560;2024-02-04T04:41:32;2.25;;;1.73;;
23496;SDS011;11925;48.122;11.560;2024-02-04T04:44:02;2.47;;;1.40;;
23496;SDS011;11925;48.122;11.560;2024-02-04T04:46:30;2.85;;;1.48;;
23496;SDS011;11925;48.122;11.560;2024-02-04T04:48:59;2.20;;;1.35;;
23496;SDS011;11925;48.122;11.560;2024-02-04T04:51:28;2.08;;;1.27;;
23496;SDS011;11925;48.122;11.560;2024-02-04T04:53:57;2.17;;;1.20;;
23496;SDS011;11925;48.122;11.560;2024-02-04T04:56:25;3.42;;;1.30;;
23496;SDS011;11925;48.122;11.560;2024-02-04T04:58:54;3.28;;;1.65;;
23496;SDS011;11925;48.122;11.560;2024-02-04T05:01:24;2.50;;;1.33;;
23496;SDS011;11925;48.122;11.560;2024-02-04T05:03:53;2.45;;;1.10;;
23496;SDS011;11925;48.122;11.560;2024-02-04T05:06:22;1.95;;;1.08;;
23496;SDS011;11925;48.122;11.560;2024-02-04T05:08:51;1.88;;;1.15;;
23496;SDS011;11925;48.122;11.560;2024-02-04T05:11:20;3.70;;;1.20;;
23496;SDS011;11925;48.122;11.560;2024-02-04T05:13:49;2.38;;;1.30;;
23496;SDS011;11925;48.122;11.560;2024-02-04T05:16:18;1.40;;;0.90;;
23496;SDS011;11925;48.122;11.560;2024-02-04T05:18:48;2.42;;;1.00;;
23496;SDS011;11925;48.122;11.560;2024-02-04T05:21:16;1.63;;;0.90;;
23496;SDS011;11925;48.122;11.560;2024-02-04T05:23:45;2.92;;;1.20;;
23496;SDS011;11925;48.122;11.560;2024-02-04T05:26:14;1.88;;;0.90;;
23496;SDS011;11925;48.122;11.560;2024-02-04T05:28:46;2.10;;;1.10;;
23496;SDS011;11925;48.122;11.560;2024-02-04T05:31:14;2.88;;;0.90;;
23496;SDS011;11925;48.122;11.560;2024-02-04T05:33:43;2.30;;;1.08;;
23496;SDS011;11925;48.122;11.560;2024-02-04T05:36:13;1.60;;;0.95;;
23496;SDS011;11925;48.122;11.560;2024-02-04T05:38:43;2.05;;;1.08;;
23496;SDS011;11925;48.122;11.560;2024-02-04T05:41:12;1.58;;;0.90;;
23496;SDS011;11925;48.122;11.560;2024-02-04T05:43:41;2.67;;;1.02;;
23496;SDS011;11925;48.122;11.560;2024-02-04T05:46:09;2.90;;;1.27;;
23496;SDS011;11925;48.122;11.560;2024-02-04T05:48:38;2.20;;;1.10;;
23496;SDS011;11925;48.122;11.560;2024-02-04T05:51:11;1.60;;;0.95;;
23496;SDS011;11925;48.122;11.560;2024-02-04T05:53:41;3.58;;;1.20;;
23496;SDS011;11925;48.122;11.560;2024-02-04T05:56:10;2.50;;;1.23;;
23496;SDS011;11925;48.122;11.560;2024-02-04T05:58:39;3.30;;;1.30;;
23496;SDS011;11925;48.122;11.560;2024-02-04T06:01:07;2.10;;;1.30;;
23496;SDS011;11925;48.122;11.560;2024-02-04T06:03:36;2.63;;;1.23;;
23496;SDS011;11925;48.122;11.560;2024-02-04T06:06:05;4.00;;;1.50;;
23496;SDS011;11925;48.122;11.560;2024-02-04T06:08:34;2.60;;;1.42;;
23496;SDS011;11925;48.122;11.560;2024-02-04T06:11:04;2.45;;;1.30;;
23496;SDS011;11925;48.122;11.560;2024-02-04T06:13:32;3.05;;;1.55;;
23496;SDS011;11925;48.122;11.560;2024-02-04T06:16:01;3.40;;;1.52;;
23496;SDS011;11925;48.122;11.560;2024-02-04T06:18:30;5.05;;;1.60;;
23496;SDS011;11925;48.122;11.560;2024-02-04T06:20:58;2.92;;;1.60;;
23496;SDS011;11925;48.122;11.560;2024-02-04T06:23:27;3.25;;;1.50;;
23496;SDS011;11925;48.122;11.560;2024-02-04T06:25:56;3.78;;;1.50;;
23496;SDS011;11925;48.122;11.560;2024-02-04T06:28:26;2.92;;;1.45;;
23496;SDS011;11925;48.122;11.560;2024-02-04T06:30:55;3.85;;;1.75;;
23496;SDS011;11925;48.122;11.560;2024-02-04T06:33:24;3.78;;;1.65;;
23496;SDS011;11925;48.122;11.560;2024-02-04T06:35:53;2.65;;;1.50;;
23496;SDS011;11925;48.122;11.560;2024-02-04T06:38:22;3.78;;;1.63;;
23496;SDS011;11925;48.122;11.560;2024-02-04T06:40:51;3.05;;;1.52;;
23496;SDS011;11925;48.122;11.560;2024-02-04T06:43:19;2.40;;;1.38;;
23496;SDS011;11925;48.122;11.560;2024-02-04T06:45:49;4.10;;;1.92;;
23496;SDS011;11925;48.122;11.560;2024-02-04T06:48:18;2.22;;;1.33;;
23496;SDS011;11925;48.122;11.560;2024-02-04T06:50:47;2.47;;;1.45;;
23496;SDS011;11925;48.122;11.560;2024-02-04T06:53:16;2.30;;;1.48;;
23496;SDS011;11925;48.122;11.560;2024-02-04T06:55:45;3.22;;;1.83;;
23496;SDS011;11925;48.122;11.560;2024-02-04T06:58:13;2.05;;;1.40;;
23496;SDS011;11925;48.122;11.560;2024-02-04T07:00:42;3.25;;;1.70;;
23496;SDS011;11925;48.122;11.560;2024-02-04T07:03:12;2.78;;;1.85;;
23496;SDS011;11925;48.122;11.560;2024-02-04T07:05:41;5.07;;;2.20;;
23496;SDS011;11925;48.122;11.560;2024-02-04T07:08:13;4.57;;;2.05;;
23496;SDS011;11925;48.122;11.560;2024-02-04T07:10:42;4.55;;;2.45;;
23496;SDS011;11925;48.122;11.560;2024-02-04T07:13:11;4.07;;;2.15;;
23496;SDS011;11925;48.122;11.560;2024-02-04T07:15:40;5.70;;;2.50;;
23496;SDS011;11925;48.122;11.560;2024-02-04T07:18:08;4.93;;;2.67;;
23496;SDS011;11925;48.122;11.560;2024-02-04T07:20:39;4.32;;;2.40;;
23496;SDS011;11925;48.122;11.560;2024-02-04T07:23:08;4.70;;;2.53;;
23496;SDS011;11925;48.122;11.560;2024-02-04T07:25:37;4.85;;;2.67;;
23496;SDS011;11925;48.122;11.560;2024-02-04T07:28:06;4.63;;;2.67;;
23496;SDS011;11925;48.122;11.560;2024-02-04T07:30:35;5.63;;;3.05;;
23496;SDS011;11925;48.122;11.560;2024-02-04T07:33:03;6.30;;;3.75;;
23496;SDS011;11925;48.122;11.560;2024-02-04T07:35:32;5.20;;;3.35;;
23496;SDS011;11925;48.122;11.560;2024-02-04T07:38:02;7.05;;;3.47;;
23496;SDS011;11925;48.122;11.560;2024-02-04T07:40:31;10.13;;;4.03;;
23496;SDS011;11925;48.122;11.560;2024-02-04T07:43:00;7.30;;;3.85;;
23496;SDS011;11925;48.122;11.560;2024-02-04T07:45:29;7.00;;;3.40;;
23496;SDS011;11925;48.122;11.560;2024-02-04T07:47:57;7.25;;;3.85;;
23496;SDS011;11925;48.122;11.560;2024-02-04T07:50:26;6.03;;;3.35;;
23496;SDS011;11925;48.122;11.560;2024-02-04T07:52:55;6.22;;;3.83;;
23496;SDS011;11925;48.122;11.560;2024-02-04T07:55:25;5.28;;;3.40;;
23496;SDS011;11925;48.122;11.560;2024-02-04T07:57:53;6.30;;;3.58;;
23496;SDS011;11925;48.122;11.560;2024-02-04T08:00:22;6.18;;;3.20;;
23496;SDS011;11925;48.122;11.560;2024-02-04T08:02:51;6.13;;;4.40;;
23496;SDS011;11925;48.122;11.560;2024-02-04T08:05:20;7.28;;;3.33;;
23496;SDS011;11925;48.122;11.560;2024-02-04T08:07:48;6.30;;;3.10;;
23496;SDS011;11925;48.122;11.560;2024-02-04T08:10:17;6.18;;;3.17;;
23496;SDS011;11925;48.122;11.560;2024-02-04T08:12:47;5.95;;;2.78;;
23496;SDS011;11925;48.122;11.560;2024-02-04T08:15:17;5.82;;;3.63;;
23496;SDS011;11925;48.122;11.560;2024-02-04T08:17:46;6.72;;;2.83;;
23496;SDS011;11925;48.122;11.560;2024-02-04T08:20:15;7.47;;;2.90;;
23496;SDS011;11925;48.122;11.560;2024-02-04T08:22:43;6.28;;;2.63;;
23496;SDS011;11925;48.122;11.560;2024-02-04T08:25:12;6.63;;;2.70;;
23496;SDS011;11925;48.122;11.560;2024-02-04T08:27:41;5.35;;;2.83;;
23496;SDS011;11925;48.122;11.560;2024-02-04T08:30:11;4.47;;;2.60;;
23496;SDS011;11925;48.122;11.560;2024-02-04T08:32:41;8.07;;;2.65;;
23496;SDS011;11925;48.122;11.560;2024-02-04T08:35:09;5.20;;;2.38;;
23496;SDS011;11925;48.122;11.560;2024-02-04T08:37:38;4.75;;;2.25;;
23496;SDS011;11925;48.122;11.560;2024-02-04T08:40:07;5.22;;;2.03;;
23496;SDS011;11925;48.122;11.560;2024-02-04T08:42:37;8.02;;;2.22;;
23496;SDS011;11925;48.122;11.560;2024-02-04T08:45:06;7.50;;;1.92;;
23496;SDS011;11925;48.122;11.560;2024-02-04T08:47:36;6.60;;;2.40;;
23496;SDS011;11925;48.122;11.560;2024-02-04T08:50:05;5.65;;;2.50;;
23496;SDS011;11925;48.122;11.560;2024-02-04T08:52:34;5.10;;;2.25;;
23496;SDS011;11925;48.122;11.560;2024-02-04T08:55:03;6.40;;;2.45;;
23496;SDS011;11925;48.122;11.560;2024-02-04T08:57:32;7.25;;;3.15;;
23496;SDS011;11925;48.122;11.560;2024-02-04T09:00:01;8.93;;;3.40;;
23496;SDS011;11925;48.122;11.560;2024-02-04T09:02:30;5.38;;;2.97;;
23496;SDS011;11925;48.122;11.560;2024-02-04T09:05:00;6.75;;;3.10;;
23496;SDS011;11925;48.122;11.560;2024-02-04T09:07:29;4.95;;;2.55;;
23496;SDS011;11925;48.122;11.560;2024-02-04T09:10:00;6.78;;;2.60;;
23496;SDS011;11925;48.122;11.560;2024-02-04T09:12:29;5.68;;;2.15;;
23496;SDS011;11925;48.122;11.560;2024-02-04T09:14:57;8.90;;;2.15;;
23496;SDS011;11925;48.122;11.560;2024-02-04T09:17:26;5.03;;;2.65;;
23496;SDS011;11925;48.122;11.560;2024-02-04T09:19:55;5.82;;;1.83;;
23496;SDS011;11925;48.122;11.560;2024-02-04T09:22:25;4.57;;;2.28;;
23496;SDS011;11925;48.122;11.560;2024-02-04T09:24:54;6.18;;;2.33;;
23496;SDS011;11925;48.122;11.560;2024-02-04T09:27:23;6.47;;;2.63;;
23496;SDS011;11925;48.122;11.560;2024-02-04T09:29:52;9.25;;;3.10;;
23496;SDS011;11925;48.122;11.560;2024-02-04T09:32:22;6.50;;;2.53;;
23496;SDS011;11925;48.122;11.560;2024-02-04T09:34:51;7.20;;;2.65;;
23496;SDS011;11925;48.122;11.560;2024-02-04T09:37:19;5.10;;;1.85;;
23496;SDS011;11925;48.122;11.560;2024-02-04T09:39:50;5.22;;;2.00;;
23496;SDS011;11925;48.122;11.560;2024-02-04T09:42:19;7.05;;;2.50;;
23496;SDS011;11925;48.122;11.560;2024-02-04T09:44:48;7.75;;;2.55;;
23496;SDS011;11925;48.122;11.560;2024-02-04T09:47:17;8.20;;;2.72;;
23496;SDS011;11925;48.122;11.560;2024-02-04T09:49:46;6.43;;;2.78;;
23496;SDS011;11925;48.122;11.560;2024-02-04T09:52:18;5.78;;;3.33;;
23496;SDS011;11925;48.122;11.560;2024-02-04T09:54:49;9.02;;;3.70;;
23496;SDS011;11925;48.122;11.560;2024-02-04T09:57:20;9.95;;;4.85;;
23496;SDS011;11925;48.122;11.560;2024-02-04T09:59:48;11.10;;;4.22;;
23496;SDS011;11925;48.122;11.560;2024-02-04T10:02:17;6.90;;;3.83;;
23496;SDS011;11925;48.122;11.560;2024-02-04T10:04:48;6.70;;;2.83;;
23496;SDS011;11925;48.122;11.560;2024-02-04T10:07:17;7.78;;;3.00;;
23496;SDS011;11925;48.122;11.560;2024-02-04T10:09:46;7.72;;;3.45;;
23496;SDS011;11925;48.122;11.560;2024-02-04T10:12:15;6.20;;;2.90;;
23496;SDS011;11925;48.122;11.560;2024-02-04T10:14:46;5.93;;;2.97;;
23496;SDS011;11925;48.122;11.560;2024-02-04T10:17:15;5.00;;;2.85;;
23496;SDS011;11925;48.122;11.560;2024-02-04T10:19:44;5.28;;;2.70;;
23496;SDS011;11925;48.122;11.560;2024-02-04T10:22:12;5.78;;;2.60;;
23496;SDS011;11925;48.122;11.560;2024-02-04T10:24:43;5.18;;;2.92;;
23496;SDS011;11925;48.122;11.560;2024-02-04T10:27:14;4.90;;;2.65;;
23496;SDS011;11925;48.122;11.560;2024-02-04T10:29:56;6.88;;;3.25;;
23496;SDS011;11925;48.122;11.560;2024-02-04T10:32:25;5.38;;;2.85;;
23496;SDS011;11925;48.122;11.560;2024-02-04T10:34:54;4.25;;;2.78;;
23496;SDS011;11925;48.122;11.560;2024-02-04T10:37:23;6.20;;;2.97;;
23496;SDS011;11925;48.122;11.560;2024-02-04T10:39:56;5.47;;;3.00;;
23496;SDS011;11925;48.122;11.560;2024-02-04T10:42:26;5.80;;;3.10;;
23496;SDS011;11925;48.122;11.560;2024-02-04T10:44:57;5.70;;;2.42;;
23496;SDS011;11925;48.122;11.560;2024-02-04T10:47:29;6.40;;;2.70;;
23496;SDS011;11925;48.122;11.560;2024-02-04T10:50:00;5.07;;;2.63;;
23496;SDS011;11925;48.122;11.560;2024-02-04T10:52:32;3.80;;;2.60;;
23496;SDS011;11925;48.122;11.560;2024-02-04T10:55:03;5.70;;;2.63;;
23496;SDS011;11925;48.122;11.560;2024-02-04T10:57:33;5.55;;;2.42;;
23496;SDS011;11925;48.122;11.560;2024-02-04T11:00:03;4.68;;;2.75;;
23496;SDS011;11925;48.122;11.560;2024-02-04T11:02:35;4.75;;;2.50;;
23496;SDS011;11925;48.122;11.560;2024-02-04T11:05:04;3.28;;;1.95;;
23496;SDS011;11925;48.122;11.560;2024-02-04T11:07:34;4.65;;;1.85;;
23496;SDS011;11925;48.122;11.560;2024-02-04T11:10:03;5.30;;;1.80;;
23496;SDS011;11925;48.122;11.560;2024-02-04T11:12:33;2.47;;;1.65;;
23496;SDS011;11925;48.122;11.560;2024-02-04T11:15:05;2.17;;;1.33;;
23496;SDS011;11925;48.122;11.560;2024-02-04T11:17:44;6.93;;;1.60;;
23496;SDS011;11925;48.122;11.560;2024-02-04T11:20:23;3.30;;;1.40;;
23496;SDS011;11925;48.122;11.560;2024-02-04T11:22:59;3.47;;;1.50;;
23496;SDS011;11925;48.122;11.560;2024-02-04T11:25:36;3.50;;;1.40;;
23496;SDS011;11925;48.122;11.560;2024-02-04T11:28:05;3.42;;;1.25;;
23496;SDS011;11925;48.122;11.560;2024-02-04T11:30:35;2.97;;;1.45;;
23496;SDS011;11925;48.122;11.560;2024-02-04T11:33:05;3.35;;;1.45;;
23496;SDS011;11925;48.122;11.560;2024-02-04T11:35:34;2.42;;;1.38;;
23496;SDS011;11925;48.122;11.560;2024-02-04T11:38:03;4.15;;;1.58;;
23496;SDS011;11925;48.122;11.560;2024-02-04T11:40:34;6.45;;;1.67;;
23496;SDS011;11925;48.122;11.560;2024-02-04T11:43:04;3.33;;;1.40;;
23496;SDS011;11925;48.122;11.560;2024-02-04T11:45:33;3.80;;;1.90;;
23496;SDS011;11925;48.122;11.560;2024-02-04T11:48:08;4.38;;;2.38;;
23496;SDS011;11925;48.122;11.560;2024-02-04T11:50:37;7.68;;;3.45;;
23496;SDS011;11925;48.122;11.560;2024-02-04T11:53:08;6.80;;;2.85;;
23496;SDS011;11925;48.122;11.560;2024-02-04T11:55:38;7.45;;;3.00;;
23496;SDS011;11925;48.122;11.560;2024-02-04T11:58:11;6.82;;;3.00;;
23496;SDS011;11925;48.122;11.560;2024-02-04T12:00:42;10.07;;;5.25;;
23496;SDS011;11925;48.122;11.560;2024-02-04T12:03:12;7.90;;;4.25;;
23496;SDS011;11925;48.122;11.560;2024-02-04T12:05:41;7.93;;;4.43;;
23496;SDS011;11925;48.122;11.560;2024-02-04T12:08:11;7.65;;;3.33;;
23496;SDS011;11925;48.122;11.560;2024-02-04T12:10:40;4.93;;;2.67;;
23496;SDS011;11925;48.122;11.560;2024-02-04T12:13:09;4.45;;;2.38;;
23496;SDS011;11925;48.122;11.560;2024-02-04T12:15:38;4.68;;;1.70;;
23496;SDS011;11925;48.122;11.560;2024-02-04T12:18:07;4.68;;;1.98;;
23496;SDS011;11925;48.122;11.560;2024-02-04T12:20:38;3.92;;;1.33;;
23496;SDS011;11925;48.122;11.560;2024-02-04T12:23:07;2.92;;;1.00;;
23496;SDS011;11925;48.122;11.560;2024-02-04T12:25:36;1.92;;;1.00;;
23496;SDS011;11925;48.122;11.560;2024-02-04T12:28:10;2.83;;;1.27;;
23496;SDS011;11925;48.122;11.560;2024-02-04T12:30:38;2.72;;;1.00;;
23496;SDS011;11925;48.122;11.560;2024-02-04T12:33:07;3.83;;;0.90;;
23496;SDS011;11925;48.122;11.560;2024-02-04T12:35:38;5.20;;;1.23;;
23496;SDS011;11925;48.122;11.560;2024-02-04T12:38:06;2.20;;;0.85;;
23496;SDS011;11925;48.122;11.560;2024-02-04T12:40:35;3.72;;;0.68;;
23496;SDS011;11925;48.122;11.560;2024-02-04T12:43:04;2.70;;;0.80;;
23496;SDS011;11925;48.122;11.560;2024-02-04T12:45:33;4.57;;;1.00;;
23496;SDS011;11925;48.122;11.560;2024-02-04T12:48:02;5.03;;;1.20;;
23496;SDS011;11925;48.122;11.560;2024-02-04T12:50:31;3.83;;;0.80;;
23496;SDS011;11925;48.122;11.560;2024-02-04T12:53:04;4.05;;;0.85;;
23496;SDS011;11925;48.122;11.560;2024-02-04T12:55:34;2.20;;;1.05;;
23496;SDS011;11925;48.122;11.560;2024-02-04T12:58:05;1.92;;;0.77;;
23496;SDS011;11925;48.122;11.560;2024-02-04T13:00:35;3.10;;;1.70;;
23496;SDS011;11925;48.122;11.560;2024-02-04T13:03:05;3.28;;;1.20;;
23496;SDS011;11925;48.122;11.560;2024-02-04T13:05:34;3.65;;;1.15;;
23496;SDS011;11925;48.122;11.560;2024-02-04T13:08:05;2.65;;;1.10;;
23496;SDS011;11925;48.122;11.560;2024-02-04T13:10:35;4.70;;;1.80;;
23496;SDS011;11925;48.122;11.560;2024-02-04T13:13:05;2.92;;;1.38;;
23496;SDS011;11925;48.122;11.560;2024-02-04T13:15:36;3.70;;;1.00;;
23496;SDS011;11925;48.122;11.560;2024-02-04T13:18:05;2.13;;;1.00;;
23496;SDS011;11925;48.122;11.560;2024-02-04T13:20:37;3.05;;;1.00;;
23496;SDS011;11925;48.122;11.560;2024-02-04T13:23:08;2.85;;;1.15;;
23496;SDS011;11925;48.122;11.560;2024-02-04T13:25:37;2.72;;;1.10;;
23496;SDS011;11925;48.122;11.560;2024-02-04T13:28:06;3.15;;;1.15;;
23496;SDS011;11925;48.122;11.560;2024-02-04T13:30:35;3.50;;;1.17;;
23496;SDS011;11925;48.122;11.560;2024-02-04T13:33:04;2.92;;;1.20;;
23496;SDS011;11925;48.122;11.560;2024-02-04T13:35:35;2.30;;;0.90;;
23496;SDS011;11925;48.122;11.560;2024-02-04T13:38:04;5.13;;;1.35;;
23496;SDS011;11925;48.122;11.560;2024-02-04T13:40:36;2.67;;;1.35;;
23496;SDS011;11925;48.122;11.560;2024-02-04T13:43:06;4.18;;;1.00;;
23496;SDS011;11925;48.122;11.560;2024-02-04T13:45:35;1.65;;;0.80;;
23496;SDS011;11925;48.122;11.560;2024-02-04T13:48:04;3.40;;;0.88;;
23496;SDS011;11925;48.122;11.560;2024-02-04T13:50:33;2.83;;;0.98;;
23496;SDS011;11925;48.122;11.560;2024-02-04T13:53:03;2.55;;;1.00;;
23496;SDS011;11925;48.122;11.560;2024-02-04T13:55:32;5.88;;;0.90;;
23496;SDS011;11925;48.122;11.560;2024-02-04T13:58:02;2.20;;;1.10;;
23496;SDS011;11925;48.122;11.560;2024-02-04T14:00:31;5.20;;;0.95;;
23496;SDS011;11925;48.122;11.560;2024-02-04T14:03:00;3.42;;;1.10;;
23496;SDS011;11925;48.122;11.560;2024-02-04T14:05:29;2.30;;;0.93;;
23496;SDS011;11925;48.122;11.560;2024-02-04T14:07:58;5.07;;;0.80;;
23496;SDS011;11925;48.122;11.560;2024-02-04T14:10:26;5.28;;;1.00;;
23496;SDS011;11925;48.122;11.560;2024-02-04T14:12:55;1.92;;;0.90;;
23496;SDS011;11925;48.122;11.560;2024-02-04T14:15:25;3.53;;;1.00;;
23496;SDS011;11925;48.122;11.560;2024-02-04T14:17:54;3.25;;;1.27;;
23496;SDS011;11925;48.122;11.560;2024-02-04T14:20:24;3.08;;;0.90;;
23496;SDS011;11925;48.122;11.560;2024-02-04T14:22:53;2.42;;;0.82;;
23496;SDS011;11925;48.122;11.560;2024-02-04T14:25:23;2.47;;;1.10;;
23496;SDS011;11925;48.122;11.560;2024-02-04T14:27:56;2.88;;;0.93;;
23496;SDS011;11925;48.122;11.560;2024-02-04T14:30:26;2.88;;;1.00;;
23496;SDS011;11925;48.122;11.560;2024-02-04T14:32:55;2.00;;;1.00;;
23496;SDS011;11925;48.122;11.560;2024-02-04T14:35:24;2.40;;;1.05;;
23496;SDS011;11925;48.122;11.560;2024-02-04T14:37:53;3.92;;;1.38;;
23496;SDS011;11925;48.122;11.560;2024-02-04T14:40:21;2.83;;;0.98;;
23496;SDS011;11925;48.122;11.560;2024-02-04T14:42:50;3.35;;;0.95;;
23496;SDS011;11925;48.122;11.560;2024-02-04T14:45:19;8.32;;;1.48;;
23496;SDS011;11925;48.122;11.560;2024-02-04T14:47:49;3.10;;;1.10;;
23496;SDS011;11925;48.122;11.560;2024-02-04T14:50:18;2.65;;;0.93;;